createdAt,value
2023-01-27T00:02:16.870Z,7.30
2023-01-27T00:07:19.135Z,12.55
2023-01-27T00:12:41.714Z,10.98
2023-01-27T00:17:43.809Z,7.68
2023-01-27T00:23:04.632Z,9.52
2023-01-27T00:28:08.386Z,8.27
2023-01-27T00:33:28.730Z,10.32
2023-01-27T00:38:32.942Z,5.72
2023-01-27T00:43:35.013Z,8.77
2023-01-27T00:48:37.336Z,7.63
2023-01-27T00:53:40.772Z,6.25
2023-01-27T00:58:42.918Z,1.88
2023-01-27T01:03:45.183Z,7.00
2023-01-27T01:08:48.597Z,3.97
2023-01-27T01:13:50.732Z,3.42
2023-01-27T01:18:53.316Z,4.85
2023-01-27T01:23:55.733Z,3.30
2023-01-27T01:28:57.897Z,5.57
2023-01-27T01:34:02.494Z,8.48
2023-01-27T01:39:04.611Z,7.88
2023-01-27T01:44:20.402Z,2.97
2023-01-27T01:49:36.867Z,3.65
2023-01-27T01:54:45.251Z,6.82
2023-01-27T01:59:50.691Z,4.45
2023-01-27T02:05:17.568Z,3.83
2023-01-27T02:10:19.747Z,5.68
2023-01-27T02:15:21.962Z,5.80
2023-01-27T02:20:36.090Z,7.72
2023-01-27T02:25:53.640Z,5.45
2023-01-27T02:30:56.580Z,4.60
2023-01-27T02:36:11.904Z,7.45
2023-01-27T02:41:29.215Z,4.35
2023-01-27T02:46:31.627Z,5.68
2023-01-27T02:51:33.828Z,6.15
2023-01-27T02:56:37.511Z,5.80
2023-01-27T03:01:39.702Z,6.28
2023-01-27T03:06:41.843Z,6.78
2023-01-27T03:12:02.601Z,10.55
2023-01-27T03:17:23.187Z,4.72
2023-01-27T03:22:26.227Z,5.57
2023-01-27T03:27:29.324Z,3.72
2023-01-27T03:32:49.764Z,5.70
2023-01-27T03:38:31.711Z,3.95
2023-01-27T03:43:52.231Z,6.28
2023-01-27T03:48:56.316Z,2.35
2023-01-27T03:54:00.955Z,5.07
2023-01-27T03:59:03.173Z,3.90
2023-01-27T04:04:24.046Z,4.05
2023-01-27T04:09:31.841Z,4.15
2023-01-27T04:14:33.959Z,4.55
2023-01-27T04:19:36.091Z,3.08
2023-01-27T04:24:39.791Z,5.53
2023-01-27T04:29:42.938Z,3.30
2023-01-27T04:34:45.086Z,3.55
2023-01-27T04:39:47.402Z,2.47
2023-01-27T04:44:49.571Z,2.80
2023-01-27T04:49:51.650Z,2.25
2023-01-27T04:54:53.768Z,3.70
2023-01-27T04:59:55.883Z,3.05
2023-01-27T05:04:59.609Z,1.83
2023-01-27T05:10:02.027Z,2.00
2023-01-27T05:15:04.465Z,1.27
2023-01-27T05:20:06.926Z,2.63
2023-01-27T05:25:09.931Z,2.50
2023-01-27T05:30:12.757Z,2.17
2023-01-27T05:35:15.209Z,3.50
2023-01-27T05:40:17.766Z,0.88
2023-01-27T05:45:20.220Z,4.70
2023-01-27T05:50:22.345Z,3.70
2023-01-27T05:55:24.532Z,4.07
2023-01-27T06:00:26.786Z,5.45
2023-01-27T06:05:28.886Z,3.22
2023-01-27T06:10:32.046Z,4.10
2023-01-27T06:15:34.199Z,2.88
2023-01-27T06:20:36.555Z,4.43
2023-01-27T06:25:41.839Z,3.88
2023-01-27T06:30:44.423Z,3.20
2023-01-27T06:35:47.369Z,4.72
2023-01-27T06:40:49.491Z,5.53
2023-01-27T06:45:52.650Z,5.43
2023-01-27T06:50:55.647Z,8.00
2023-01-27T06:55:59.822Z,4.10
2023-01-27T07:01:03.865Z,3.72
2023-01-27T07:06:06.376Z,3.30
2023-01-27T07:11:08.456Z,5.65
2023-01-27T07:16:10.648Z,3.42
2023-01-27T07:21:12.889Z,3.60
2023-01-27T07:26:24.588Z,4.95
2023-01-27T07:31:27.570Z,3.70
2023-01-27T07:36:29.742Z,4.78
2023-01-27T07:41:31.805Z,3.92
2023-01-27T07:46:33.877Z,4.22
2023-01-27T07:51:36.055Z,5.00
2023-01-27T07:56:38.447Z,5.85
2023-01-27T08:01:41.935Z,2.33
2023-01-27T08:06:44.171Z,3.13
2023-01-27T08:11:46.239Z,4.93
2023-01-27T08:16:48.359Z,5.10
2023-01-27T08:21:50.544Z,1.92
2023-01-27T08:26:52.748Z,4.80
2023-01-27T08:31:54.851Z,8.38
2023-01-27T08:36:56.984Z,4.78
2023-01-27T08:41:59.218Z,5.97
2023-01-27T08:47:01.341Z,2.03
2023-01-27T08:52:03.672Z,2.25
2023-01-27T08:57:05.787Z,3.22
2023-01-27T09:02:12.125Z,2.35
2023-01-27T09:07:14.267Z,4.07
2023-01-27T09:12:16.850Z,1.75
2023-01-27T09:17:19.781Z,2.90
2023-01-27T09:22:21.823Z,3.50
2023-01-27T09:27:37.231Z,3.92
2023-01-27T09:32:41.284Z,2.60
2023-01-27T09:37:58.261Z,3.20
2023-01-27T09:43:19.834Z,3.25
2023-01-27T09:48:43.419Z,2.80
2023-01-27T09:54:09.869Z,0.82
2023-01-27T09:59:12.122Z,2.08
2023-01-27T10:04:51.567Z,1.33
2023-01-27T10:10:10.152Z,3.25
2023-01-27T10:15:32.710Z,3.03
2023-01-27T10:20:52.727Z,1.80
2023-01-27T10:26:08.856Z,5.07
2023-01-27T10:36:23.460Z,3.33
2023-01-27T10:41:43.736Z,2.07
2023-01-27T10:47:19.243Z,5.53
2023-01-27T10:52:26.605Z,2.10
2023-01-27T10:58:00.373Z,3.38
2023-01-27T11:03:07.330Z,5.43
2023-01-27T11:08:40.697Z,2.65
2023-01-27T11:13:42.955Z,2.72
2023-01-27T11:19:00.006Z,3.67
2023-01-27T11:24:16.612Z,6.03
2023-01-27T11:29:21.503Z,7.40
2023-01-27T11:35:01.950Z,2.83
2023-01-27T11:40:07.271Z,3.22
2023-01-27T11:45:15.756Z,1.67
2023-01-27T11:50:24.740Z,1.38
2023-01-27T11:55:33.842Z,2.00
2023-01-27T12:00:43.028Z,2.92
2023-01-27T12:05:51.961Z,4.20
2023-01-27T12:10:54.119Z,4.60
2023-01-27T12:15:58.701Z,2.83
2023-01-27T12:21:03.659Z,2.05
2023-01-27T12:26:08.872Z,2.47
2023-01-27T12:31:22.744Z,4.07
2023-01-27T12:36:25.383Z,2.95
2023-01-27T12:41:30.751Z,3.22
2023-01-27T12:46:32.994Z,1.55
2023-01-27T12:51:48.461Z,1.80
2023-01-27T12:56:53.337Z,3.28
2023-01-27T13:02:16.508Z,2.03
2023-01-27T13:07:23.766Z,2.72
2023-01-27T13:12:31.224Z,4.97
2023-01-27T13:17:44.587Z,2.85
2023-01-27T13:23:30.468Z,2.13
2023-01-27T13:28:50.157Z,5.67
2023-01-27T13:34:03.222Z,2.67
2023-01-27T13:39:23.814Z,4.28
2023-01-27T13:44:53.335Z,2.83
2023-01-27T13:50:05.371Z,2.55
2023-01-27T13:55:12.843Z,1.77
2023-01-27T14:00:23.908Z,2.05
2023-01-27T14:05:38.576Z,1.67
2023-01-27T14:10:59.189Z,1.45
2023-01-27T14:16:07.592Z,3.58
2023-01-27T14:21:25.010Z,4.00
2023-01-27T14:26:45.223Z,3.13
2023-01-27T14:32:08.852Z,3.22
2023-01-27T14:37:31.134Z,2.53
2023-01-27T14:43:15.091Z,1.17
2023-01-27T14:48:40.906Z,1.83
2023-01-27T14:53:46.045Z,0.77
2023-01-27T14:58:54.379Z,4.00
2023-01-27T15:04:11.517Z,6.00
2023-01-27T15:09:40.636Z,3.10
2023-01-27T15:15:10.565Z,2.70
2023-01-27T15:20:40.761Z,3.03
2023-01-27T15:25:54.449Z,2.13
2023-01-27T15:31:21.703Z,3.53
2023-01-27T15:36:32.594Z,3.10
2023-01-27T15:41:50.469Z,2.10
2023-01-27T15:47:04.088Z,3.97
2023-01-27T15:52:21.115Z,3.00
2023-01-27T15:57:33.007Z,3.15
2023-01-27T16:02:47.088Z,7.82
2023-01-27T16:08:00.263Z,8.48
2023-01-27T16:13:23.212Z,3.60
2023-01-27T16:18:27.698Z,4.93
2023-01-27T16:23:51.291Z,2.80
2023-01-27T16:29:04.941Z,5.82
2023-01-27T16:34:25.974Z,2.40
2023-01-27T16:39:47.126Z,2.60
2023-01-27T16:44:51.524Z,2.70
2023-01-27T16:49:56.554Z,4.65
2023-01-27T16:55:00.314Z,7.47
2023-01-27T17:00:20.174Z,8.90
2023-01-27T17:05:22.976Z,4.47
2023-01-27T17:10:34.284Z,4.30
2023-01-27T17:15:38.561Z,3.90
2023-01-27T17:20:45.920Z,8.32
2023-01-27T17:25:49.307Z,12.32
2023-01-27T17:30:51.907Z,7.00
2023-01-27T17:35:56.346Z,9.32
2023-01-27T17:40:58.843Z,11.30
2023-01-27T17:46:22.173Z,11.43
2023-01-27T17:51:28.207Z,7.57
2023-01-27T18:01:35.615Z,5.93
2023-01-27T18:06:41.399Z,6.57
2023-01-27T18:11:56.148Z,5.53
2023-01-27T18:17:22.409Z,3.95
2023-01-27T18:22:26.355Z,4.35
2023-01-27T18:27:33.420Z,7.32
2023-01-27T18:32:41.658Z,3.75
2023-01-27T18:37:57.293Z,4.72
2023-01-27T18:43:00.309Z,2.90
2023-01-27T18:48:03.886Z,4.97
2023-01-27T18:53:16.533Z,7.57
2023-01-27T18:58:18.773Z,10.13
2023-01-27T19:03:26.776Z,12.80
2023-01-27T19:08:28.946Z,12.05
2023-01-27T19:13:31.176Z,8.00
2023-01-27T19:18:36.943Z,6.57
2023-01-27T19:23:39.455Z,7.10
2023-01-27T19:28:41.751Z,6.65
2023-01-27T19:33:45.166Z,7.82
2023-01-27T19:38:48.208Z,8.15
2023-01-27T19:43:50.399Z,4.97
2023-01-27T19:48:52.769Z,5.18
2023-01-27T19:53:55.019Z,4.95
2023-01-27T19:58:57.163Z,4.47
2023-01-27T20:03:59.328Z,4.55
2023-01-27T20:09:03.563Z,5.05
2023-01-27T20:14:12.139Z,8.15
2023-01-27T20:19:16.155Z,2.90
2023-01-27T20:24:19.714Z,2.10
2023-01-27T20:29:21.905Z,4.65
2023-01-27T20:34:24.120Z,23.15
2023-01-27T20:39:27.211Z,39.75
2023-01-27T20:44:29.692Z,38.40
2023-01-27T20:49:32.130Z,31.30
2023-01-27T20:54:34.348Z,24.92
2023-01-27T20:59:36.489Z,22.50
2023-01-27T21:04:40.199Z,17.75
2023-01-27T21:09:42.525Z,16.73
2023-01-27T21:14:44.783Z,18.85
2023-01-27T21:19:47.337Z,13.07
2023-01-27T21:24:49.462Z,13.30
2023-01-27T21:29:52.987Z,6.20
2023-01-27T21:34:56.633Z,6.07
2023-01-27T21:39:58.793Z,12.82
2023-01-27T21:45:13.428Z,11.57
2023-01-27T21:50:17.430Z,15.38
2023-01-27T21:55:25.306Z,24.55
2023-01-27T22:00:28.525Z,23.10
2023-01-27T22:05:33.061Z,19.48
2023-01-27T22:10:35.408Z,23.35
2023-01-27T22:15:37.813Z,21.33
2023-01-27T22:20:40.196Z,19.10
2023-01-27T22:25:48.633Z,21.15
2023-01-27T22:30:51.143Z,19.60
2023-01-27T22:36:05.428Z,19.85
2023-01-27T22:41:07.621Z,16.20
2023-01-27T22:46:10.002Z,15.15
2023-01-27T22:51:12.338Z,14.13
2023-01-27T22:56:14.983Z,15.88
2023-01-27T23:01:17.515Z,14.77
2023-01-27T23:06:20.012Z,13.52
2023-01-27T23:11:22.416Z,16.55
2023-01-27T23:16:24.983Z,17.58
2023-01-27T23:21:27.830Z,13.75
2023-01-27T23:26:30.194Z,17.55
2023-01-27T23:31:32.748Z,14.75
2023-01-27T23:36:35.055Z,13.38
2023-01-27T23:48:31.460Z,14.43
2023-01-27T23:53:33.867Z,14.93
2023-01-27T23:58:35.978Z,13.18
